Time;durP1;ratioP1;P1;durP2;ratioP2;P2;SDS_P1;SDS_P2;PMS_P1;PMS_P2;Temp;Humidity;BMP_temperature;BMP_pressure;BME280_temperature;BME280_humidity;BME280_pressure;Samples;Min_cycle;Max_cycle;Signal;HPM_P1;HPM_P2
2022/10/30 00:00:49;;;;;;;29.60;16.03;;;14.00;99.90;;;;;;5037595;28;20202;-57
2022/10/30 00:03:16;;;;;;;28.83;16.37;;;13.90;99.90;;;;;;5023602;28;23320;-58
2022/10/30 00:05:45;;;;;;;23.07;15.20;;;13.90;99.90;;;;;;5034378;28;20738;-58
2022/10/30 00:08:14;;;;;;;24.90;14.40;;;13.90;99.90;;;;;;5036086;28;20206;-58
2022/10/30 00:10:43;;;;;;;22.77;15.10;;;13.80;99.90;;;;;;5034365;28;20204;-57
2022/10/30 00:13:11;;;;;;;22.73;14.70;;;13.80;99.90;;;;;;5027062;28;20215;-58
2022/10/30 00:15:38;;;;;;;20.47;14.77;;;13.70;99.90;;;;;;5035101;28;20213;-58
2022/10/30 00:18:05;;;;;;;23.77;14.40;;;13.80;99.90;;;;;;5039306;28;20203;-57
2022/10/30 00:20:32;;;;;;;23.73;14.57;;;13.70;99.90;;;;;;5020853;28;20214;-58
2022/10/30 00:22:59;;;;;;;24.27;14.13;;;13.70;99.90;;;;;;5038199;28;20230;-57
2022/10/30 00:25:26;;;;;;;24.67;14.70;;;13.70;99.90;;;;;;5040954;28;20214;-58
2022/10/30 00:27:55;;;;;;;23.00;14.50;;;13.70;99.90;;;;;;5041046;28;20199;-58
2022/10/30 00:30:21;;;;;;;29.20;15.30;;;13.70;99.90;;;;;;5032184;28;20187;-58
2022/10/30 00:32:48;;;;;;;22.03;13.90;;;13.70;99.90;;;;;;5042735;28;20213;-58
2022/10/30 00:35:16;;;;;;;21.17;14.17;;;13.70;99.90;;;;;;5023249;28;20215;-58
2022/10/30 00:37:43;;;;;;;18.80;13.60;;;13.70;99.90;;;;;;5038261;28;20217;-58
2022/10/30 00:40:14;;;;;;;22.47;13.60;;;13.70;99.90;;;;;;5039407;28;20881;-58
2022/10/30 00:42:41;;;;;;;23.97;13.87;;;13.70;99.90;;;;;;5043055;28;20232;-58
2022/10/30 00:45:11;;;;;;;22.33;13.97;;;13.70;99.90;;;;;;5028304;28;20207;-58
2022/10/30 00:47:42;;;;;;;19.67;14.00;;;13.70;99.90;;;;;;5037231;28;20578;-58
2022/10/30 00:50:13;;;;;;;22.60;13.63;;;13.70;99.90;;;;;;5022244;28;20361;-58
2022/10/30 00:52:45;;;;;;;16.20;12.23;;;13.70;99.90;;;;;;5037587;28;20249;-58
2022/10/30 00:55:16;;;;;;;19.67;13.43;;;13.60;99.90;;;;;;5036849;28;20872;-57
2022/10/30 00:57:45;;;;;;;20.03;13.07;;;13.70;99.90;;;;;;5045284;28;20195;-58
2022/10/30 01:00:15;;;;;;;18.47;12.03;;;13.70;99.90;;;;;;5032896;28;20210;-58
2022/10/30 01:02:44;;;;;;;23.10;13.27;;;13.60;99.90;;;;;;5044923;28;20231;-46
2022/10/30 01:05:13;;;;;;;18.40;13.10;;;13.60;99.90;;;;;;5028024;28;20219;-43
2022/10/30 01:07:40;;;;;;;26.20;12.47;;;13.60;99.90;;;;;;5045292;28;20203;-43
2022/10/30 01:10:09;;;;;;;19.57;12.20;;;13.50;99.90;;;;;;5036326;28;20207;-44
2022/10/30 01:12:37;;;;;;;18.00;11.83;;;13.50;99.90;;;;;;5045473;28;20288;-45
2022/10/30 01:15:05;;;;;;;18.50;12.20;;;13.50;99.90;;;;;;5042152;28;20576;-47
2022/10/30 01:18:07;;;;;;;19.90;11.17;;;13.50;99.90;;;;;;5034907;28;20195;-43
2022/10/30 01:21:04;;;;;;;17.67;12.20;;;13.40;99.90;;;;;;5041985;28;20634;-44
2022/10/30 01:23:43;;;;;;;16.63;11.30;;;13.50;99.90;;;;;;5038150;28;20688;-43
2022/10/30 01:26:19;;;;;;;19.33;12.73;;;13.50;99.90;;;;;;5041318;28;20207;-43
2022/10/30 01:29:03;;;;;;;19.47;12.73;;;13.50;99.90;;;;;;5044975;28;20668;-45
2022/10/30 01:31:42;;;;;;;22.20;12.67;;;13.60;99.90;;;;;;5034560;28;20284;-44
2022/10/30 01:34:19;;;;;;;17.97;11.83;;;13.60;99.90;;;;;;5039958;28;20988;-45
2022/10/30 01:36:56;;;;;;;16.83;10.60;;;13.50;99.90;;;;;;5041976;28;20211;-45
2022/10/30 01:39:27;;;;;;;18.33;12.13;;;13.50;99.90;;;;;;5031290;28;20235;-43
2022/10/30 01:41:55;;;;;;;16.27;12.20;;;13.40;99.90;;;;;;5043534;28;20691;-45
2022/10/30 01:44:26;;;;;;;19.57;12.07;;;13.40;99.90;;;;;;5042780;28;20455;-44
2022/10/30 01:47:08;;;;;;;18.13;12.37;;;13.40;99.90;;;;;;5034453;28;20227;-50
2022/10/30 01:50:03;;;;;;;15.50;11.97;;;13.40;99.90;;;;;;5044188;28;20656;-43
2022/10/30 01:52:38;;;;;;;14.80;11.03;;;13.40;99.90;;;;;;5043692;28;20233;-44
2022/10/30 01:55:20;;;;;;;21.40;10.47;;;13.40;99.90;;;;;;5021094;28;20222;-48
2022/10/30 01:57:55;;;;;;;20.03;10.90;;;13.30;99.90;;;;;;5044481;28;20262;-46
2022/10/30 02:00:22;;;;;;;15.77;10.70;;;13.30;99.90;;;;;;5042226;28;20206;-45
2022/10/30 02:02:51;;;;;;;15.43;10.73;;;13.30;99.90;;;;;;5033925;28;20223;-47
2022/10/30 02:05:31;;;;;;;19.27;11.77;;;13.30;99.90;;;;;;5034505;28;20187;-44
2022/10/30 02:07:59;;;;;;;17.73;11.47;;;13.30;99.90;;;;;;5029179;28;20221;-50
2022/10/30 02:10:26;;;;;;;22.13;12.07;;;13.30;99.90;;;;;;5032697;28;20230;-47
2022/10/30 02:12:54;;;;;;;17.80;12.00;;;13.30;99.90;;;;;;5042914;28;20229;-48
2022/10/30 02:15:24;;;;;;;17.70;11.67;;;13.30;99.90;;;;;;5041189;28;20196;-44
2022/10/30 02:17:51;;;;;;;16.97;12.07;;;13.30;99.90;;;;;;5034323;28;20200;-47
2022/10/30 02:20:20;;;;;;;15.27;11.03;;;13.30;99.90;;;;;;5040863;28;20386;-44
2022/10/30 02:22:47;;;;;;;17.23;10.90;;;13.30;99.90;;;;;;5045190;28;20231;-44
2022/10/30 02:25:15;;;;;;;22.47;11.83;;;13.30;99.90;;;;;;5021153;28;20203;-45
2022/10/30 02:27:42;;;;;;;12.73;9.63;;;13.20;99.90;;;;;;5045113;28;20590;-43
2022/10/30 02:30:12;;;;;;;16.27;11.43;;;13.20;99.90;;;;;;5039659;28;20207;-44
2022/10/30 02:32:39;;;;;;;14.10;10.87;;;13.20;99.90;;;;;;5034044;28;20597;-44
2022/10/30 02:35:07;;;;;;;18.30;11.67;;;13.10;99.90;;;;;;5038814;28;20275;-46
2022/10/30 02:37:35;;;;;;;17.07;10.77;;;13.10;99.90;;;;;;5043918;28;20195;-44
2022/10/30 02:40:02;;;;;;;18.43;10.83;;;13.10;99.90;;;;;;5027032;28;20207;-47
2022/10/30 02:42:30;;;;;;;16.10;10.13;;;13.00;99.90;;;;;;5038932;28;20286;-43
2022/10/30 02:44:57;;;;;;;13.57;10.20;;;13.00;99.90;;;;;;5040963;28;20573;-46
2022/10/30 02:47:23;;;;;;;13.10;10.23;;;13.00;99.90;;;;;;5042390;28;20215;-44
2022/10/30 02:49:50;;;;;;;16.37;9.47;;;12.90;99.90;;;;;;5033312;28;20735;-47
2022/10/30 02:52:17;;;;;;;14.83;9.53;;;12.90;99.90;;;;;;5039910;28;20967;-46
2022/10/30 02:54:45;;;;;;;18.03;12.43;;;12.90;99.90;;;;;;5042641;28;20209;-43
2022/10/30 02:57:13;;;;;;;16.77;9.90;;;12.80;99.90;;;;;;5020186;28;20345;-46
2022/10/30 02:59:40;;;;;;;10.53;9.13;;;12.80;99.90;;;;;;5044465;28;20203;-47
2022/10/30 03:02:07;;;;;;;17.67;11.10;;;12.80;99.90;;;;;;5039261;28;20223;-45
2022/10/30 03:04:33;;;;;;;14.27;9.77;;;12.80;99.90;;;;;;5032777;28;20196;-47
2022/10/30 03:07:00;;;;;;;13.93;10.30;;;12.70;99.90;;;;;;5040525;28;20628;-48
2022/10/30 03:09:28;;;;;;;15.57;10.20;;;12.80;99.90;;;;;;5042032;28;20199;-44
2022/10/30 03:11:56;;;;;;;15.27;10.97;;;12.70;99.90;;;;;;5026794;28;20637;-48
2022/10/30 03:14:23;;;;;;;14.90;10.03;;;12.70;99.90;;;;;;5036058;28;20195;-44
2022/10/30 03:16:51;;;;;;;16.10;10.77;;;12.60;99.90;;;;;;5044072;28;20204;-46
2022/10/30 03:19:18;;;;;;;16.70;9.57;;;12.60;99.90;;;;;;5029511;28;20207;-45
2022/10/30 03:21:45;;;;;;;13.67;10.33;;;12.60;99.90;;;;;;5043999;28;20203;-43
2022/10/30 03:24:14;;;;;;;12.57;9.60;;;12.60;99.90;;;;;;5038087;28;20201;-44
2022/10/30 03:26:41;;;;;;;16.97;10.13;;;12.50;99.90;;;;;;5042827;28;20226;-45
2022/10/30 03:29:09;;;;;;;17.63;9.57;;;12.50;99.90;;;;;;5025795;28;20282;-47
2022/10/30 03:31:36;;;;;;;15.00;9.10;;;12.40;99.90;;;;;;5042659;28;20203;-47
2022/10/30 03:34:32;;;;;;;13.63;9.93;;;12.40;99.90;;;;;;5022850;28;20195;-43
2022/10/30 03:37:04;;;;;;;12.47;9.80;;;12.40;99.90;;;;;;5039430;28;20191;-48
2022/10/30 03:39:31;;;;;;;12.47;10.00;;;12.40;99.90;;;;;;5041884;28;20226;-44
2022/10/30 03:41:57;;;;;;;12.57;9.47;;;12.40;99.90;;;;;;5040786;28;20207;-46
2022/10/30 03:44:26;;;;;;;15.87;9.77;;;12.40;99.90;;;;;;5027018;28;20195;-44
2022/10/30 03:46:53;;;;;;;16.87;10.27;;;12.30;99.90;;;;;;5039292;28;20207;-43
2022/10/30 03:49:27;;;;;;;16.27;9.73;;;12.20;99.90;;;;;;5031265;28;23907;-45
2022/10/30 03:51:56;;;;;;;19.03;9.73;;;12.20;99.90;;;;;;5040404;28;20208;-44
2022/10/30 03:54:25;;;;;;;16.60;9.53;;;12.20;99.90;;;;;;5039667;28;20195;-43
2022/10/30 03:56:52;;;;;;;12.73;9.20;;;12.20;99.90;;;;;;5041735;28;20203;-43
2022/10/30 03:59:19;;;;;;;12.33;9.53;;;12.20;99.90;;;;;;5025441;28;20199;-43
2022/10/30 04:02:11;;;;;;;13.13;9.10;;;12.10;99.90;;;;;;5039340;28;20289;-44
2022/10/30 04:04:38;;;;;;;13.27;8.90;;;12.10;99.90;;;;;;5040704;28;20545;-44
2022/10/30 04:07:05;;;;;;;16.37;9.60;;;12.10;99.90;;;;;;5028469;28;20222;-47
2022/10/30 04:09:32;;;;;;;16.00;9.87;;;12.10;99.90;;;;;;5042206;28;20253;-46
2022/10/30 04:11:59;;;;;;;15.03;9.03;;;12.10;99.90;;;;;;5040137;28;20203;-46
2022/10/30 04:14:26;;;;;;;14.97;8.63;;;12.00;99.90;;;;;;5027117;28;20911;-43
2022/10/30 04:16:53;;;;;;;15.77;9.50;;;12.00;99.90;;;;;;5041117;28;20857;-47
2022/10/30 04:19:22;;;;;;;12.27;8.60;;;12.10;99.90;;;;;;5040460;28;20203;-44
2022/10/30 04:21:50;;;;;;;10.63;8.27;;;12.00;99.90;;;;;;5032374;28;20211;-43
2022/10/30 04:24:18;;;;;;;12.53;8.40;;;12.10;99.90;;;;;;5036320;28;20187;-45
2022/10/30 04:26:47;;;;;;;14.30;9.33;;;11.90;99.90;;;;;;5042131;28;20218;-46
2022/10/30 04:29:14;;;;;;;13.00;9.17;;;11.90;99.90;;;;;;5037837;28;20895;-43
2022/10/30 04:31:42;;;;;;;11.37;9.07;;;11.90;99.90;;;;;;5028222;28;20302;-45
2022/10/30 04:34:10;;;;;;;15.23;9.40;;;11.90;99.90;;;;;;5040503;28;20230;-46
2022/10/30 04:36:38;;;;;;;15.67;9.83;;;11.90;99.90;;;;;;5045899;28;20253;-44
2022/10/30 04:39:05;;;;;;;15.57;9.50;;;11.90;99.90;;;;;;5029346;28;20234;-46
2022/10/30 04:41:33;;;;;;;14.63;9.53;;;11.90;99.90;;;;;;5045931;28;20726;-43
2022/10/30 04:44:10;;;;;;;13.10;8.87;;;12.00;99.90;;;;;;5040696;28;20222;-46
2022/10/30 04:46:37;;;;;;;15.53;9.73;;;12.00;99.90;;;;;;5031871;28;20223;-44
2022/10/30 04:49:08;;;;;;;15.77;9.43;;;12.00;99.90;;;;;;5041720;28;20553;-49
2022/10/30 04:51:35;;;;;;;13.17;9.30;;;11.90;99.90;;;;;;5045813;28;20211;-43
2022/10/30 04:54:06;;;;;;;12.67;9.53;;;11.90;99.90;;;;;;5031337;28;20719;-45
2022/10/30 04:56:33;;;;;;;11.97;8.50;;;12.00;99.90;;;;;;5045301;28;20219;-46
2022/10/30 04:59:01;;;;;;;12.90;10.03;;;12.00;99.90;;;;;;5043327;28;20289;-47
2022/10/30 05:01:28;;;;;;;14.33;8.53;;;12.00;99.90;;;;;;5032153;28;20219;-44
2022/10/30 05:03:57;;;;;;;16.37;8.30;;;12.00;99.90;;;;;;5042528;28;20571;-47
2022/10/30 05:06:29;;;;;;;10.83;8.10;;;12.00;99.90;;;;;;5038584;28;20192;-45
2022/10/30 05:08:57;;;;;;;15.93;8.63;;;11.90;99.90;;;;;;5040647;28;20206;-48
2022/10/30 05:11:32;;;;;;;14.83;9.13;;;11.90;99.90;;;;;;5042878;28;20199;-46
2022/10/30 05:13:59;;;;;;;15.83;9.37;;;11.80;99.90;;;;;;5043194;28;20227;-47
2022/10/30 05:16:26;;;;;;;12.87;9.23;;;11.80;99.90;;;;;;5045131;28;20191;-44
2022/10/30 05:18:54;;;;;;;13.50;9.50;;;11.80;99.90;;;;;;5029981;28;20227;-47
2022/10/30 05:21:21;;;;;;;11.50;9.00;;;11.80;99.90;;;;;;5042704;28;20937;-44
2022/10/30 05:23:48;;;;;;;15.27;10.10;;;11.90;99.90;;;;;;5043850;28;20235;-45
2022/10/30 05:26:15;;;;;;;12.50;9.13;;;11.90;99.90;;;;;;5024651;28;20196;-45
2022/10/30 05:28:43;;;;;;;13.47;9.53;;;11.90;99.90;;;;;;5042892;28;20318;-49
2022/10/30 05:31:10;;;;;;;13.50;9.43;;;11.80;99.90;;;;;;5045054;28;20443;-49
2022/10/30 05:33:55;;;;;;;14.07;9.40;;;11.80;99.90;;;;;;5016998;28;20288;-46
2022/10/30 05:36:24;;;;;;;15.07;9.77;;;11.90;99.90;;;;;;5044557;28;20981;-47
2022/10/30 05:38:51;;;;;;;14.57;9.57;;;11.90;99.90;;;;;;5040521;28;20191;-48
2022/10/30 05:41:30;;;;;;;13.83;9.03;;;11.90;99.90;;;;;;5029047;28;20298;-47
2022/10/30 05:43:58;;;;;;;13.30;9.30;;;11.90;99.90;;;;;;5043669;28;20219;-50
2022/10/30 05:46:26;;;;;;;11.00;8.87;;;11.90;99.90;;;;;;5035858;28;20249;-44
2022/10/30 05:48:54;;;;;;;14.90;9.17;;;11.80;99.90;;;;;;5023883;28;20227;-44
2022/10/30 05:51:21;;;;;;;16.17;9.23;;;11.80;99.90;;;;;;5040030;28;20356;-45
2022/10/30 05:53:52;;;;;;;18.17;9.97;;;11.80;99.90;;;;;;5042412;28;20227;-45
2022/10/30 05:56:23;;;;;;;16.33;8.10;;;11.80;99.90;;;;;;5031668;28;21019;-48
2022/10/30 05:58:51;;;;;;;12.33;8.90;;;11.80;99.90;;;;;;5047319;28;20611;-48
2022/10/30 06:01:19;;;;;;;16.03;8.83;;;11.80;99.90;;;;;;5035405;28;20195;-49
2022/10/30 06:03:50;;;;;;;11.27;8.20;;;11.80;99.90;;;;;;5036871;28;20215;-46
2022/10/30 06:06:17;;;;;;;14.33;8.60;;;11.80;99.90;;;;;;5023994;28;20207;-49
2022/10/30 06:08:44;;;;;;;9.77;8.00;;;11.80;99.90;;;;;;5042495;28;20223;-46
2022/10/30 06:11:29;;;;;;;11.43;7.90;;;11.80;99.90;;;;;;5029912;28;20218;-44
2022/10/30 06:13:58;;;;;;;13.47;8.40;;;11.80;99.90;;;;;;5042888;28;20239;-49
2022/10/30 06:16:39;;;;;;;11.60;7.73;;;11.70;99.90;;;;;;5035099;28;20196;-47
2022/10/30 06:19:16;;;;;;;9.93;8.93;;;11.70;99.90;;;;;;5028405;28;20210;-47
2022/10/30 06:21:44;;;;;;;15.37;8.50;;;11.70;99.90;;;;;;5033833;28;20215;-45
2022/10/30 06:24:19;;;;;;;14.77;7.80;;;11.80;99.90;;;;;;5038782;28;20997;-46
2022/10/30 06:27:06;;;;;;;10.37;7.73;;;11.80;99.90;;;;;;5029158;28;20234;-51
2022/10/30 06:29:33;;;;;;;10.20;7.90;;;11.80;99.90;;;;;;5038547;28;20199;-50
2022/10/30 06:32:01;;;;;;;14.53;9.23;;;11.70;99.90;;;;;;5042455;28;20199;-50
2022/10/30 06:34:28;;;;;;;9.47;8.17;;;11.70;99.90;;;;;;5022015;28;20200;-44
2022/10/30 06:36:55;;;;;;;13.40;8.40;;;11.70;99.90;;;;;;5027172;28;20216;-50
2022/10/30 06:39:23;;;;;;;9.97;8.10;;;11.60;99.90;;;;;;5036522;28;20202;-46
2022/10/30 06:42:05;;;;;;;13.43;8.20;;;11.70;99.90;;;;;;5033871;28;20242;-51
2022/10/30 06:44:47;;;;;;;15.13;8.07;;;11.70;99.90;;;;;;5035915;28;20287;-45
2022/10/30 06:47:15;;;;;;;19.17;9.27;;;11.60;99.90;;;;;;5038730;28;20230;-49
2022/10/30 06:49:42;;;;;;;13.40;8.37;;;11.60;99.90;;;;;;5031489;28;20215;-47
2022/10/30 06:52:09;;;;;;;10.40;8.83;;;11.60;99.90;;;;;;5025476;28;20314;-47
2022/10/30 06:54:36;;;;;;;14.43;8.67;;;11.70;99.90;;;;;;5039323;28;20199;-50
2022/10/30 06:57:35;;;;;;;15.13;9.60;;;11.70;99.90;;;;;;5040620;28;20199;-45
2022/10/30 07:00:22;;;;;;;15.73;9.40;;;11.70;99.90;;;;;;5029772;28;20191;-46
2022/10/30 07:03:08;;;;;;;12.93;8.37;;;11.80;99.90;;;;;;5038497;28;20278;-45
2022/10/30 07:05:35;;;;;;;9.77;8.40;;;11.90;99.90;;;;;;5035984;28;20207;-48
2022/10/30 07:08:02;;;;;;;18.67;8.87;;;11.90;99.90;;;;;;5017310;28;20933;-45
2022/10/30 07:10:29;;;;;;;15.80;8.90;;;11.90;99.90;;;;;;5054246;28;20664;-45
2022/10/30 07:13:10;;;;;;;11.03;8.40;;;12.00;99.90;;;;;;5030825;28;20271;-45
2022/10/30 07:15:46;;;;;;;11.03;8.67;;;12.00;99.90;;;;;;5022403;28;20211;-47
2022/10/30 07:18:21;;;;;;;12.03;8.40;;;12.00;99.90;;;;;;5035375;28;20199;-41
2022/10/30 07:20:54;;;;;;;15.17;9.90;;;12.00;99.90;;;;;;5033455;28;20203;-48
2022/10/30 07:23:20;;;;;;;11.43;7.67;;;12.10;99.90;;;;;;5024557;28;20707;-46
2022/10/30 07:25:47;;;;;;;15.50;8.07;;;12.10;99.90;;;;;;5032239;28;20723;-47
2022/10/30 07:28:32;;;;;;;10.93;7.77;;;12.20;99.90;;;;;;5040486;28;20219;-44
2022/10/30 07:31:19;;;;;;;12.60;8.43;;;12.20;99.90;;;;;;5036864;28;20560;-45
2022/10/30 07:33:53;;;;;;;13.33;8.60;;;12.20;99.90;;;;;;5032850;28;20234;-48
2022/10/30 07:36:32;;;;;;;12.03;9.00;;;12.20;99.90;;;;;;5036143;28;20195;-50
2022/10/30 07:39:03;;;;;;;12.90;8.50;;;12.20;99.90;;;;;;5023318;28;20280;-47
2022/10/30 07:41:56;;;;;;;12.00;8.93;;;12.30;99.90;;;;;;5014876;28;20211;-47
2022/10/30 07:44:41;;;;;;;12.57;8.90;;;12.40;99.90;;;;;;5027370;28;20252;-48
2022/10/30 07:47:39;;;;;;;11.80;9.43;;;12.40;99.90;;;;;;5040468;28;20584;-44
2022/10/30 07:50:17;;;;;;;16.33;9.23;;;12.50;99.90;;;;;;5040485;28;20197;-46
2022/10/30 07:52:44;;;;;;;14.07;10.80;;;12.50;99.90;;;;;;5029351;28;20223;-47
2022/10/30 07:55:11;;;;;;;20.17;12.13;;;12.60;99.90;;;;;;5019184;28;20989;-42
2022/10/30 07:57:44;;;;;;;17.47;11.27;;;12.80;99.90;;;;;;5023975;28;20211;-48
2022/10/30 08:00:46;;;;;;;19.70;11.00;;;12.90;99.90;;;;;;5022076;28;20206;-44
2022/10/30 08:03:21;;;;;;;20.07;12.50;;;13.10;99.90;;;;;;5027797;28;20591;-44
2022/10/30 08:05:56;;;;;;;14.87;11.27;;;13.30;99.90;;;;;;5038944;28;20207;-45
2022/10/30 08:08:29;;;;;;;18.83;11.80;;;13.40;99.90;;;;;;5035535;28;20304;-43
2022/10/30 08:11:07;;;;;;;18.83;11.80;;;13.50;99.90;;;;;;5027753;28;20203;-44
2022/10/30 08:13:34;;;;;;;20.80;11.30;;;13.60;99.90;;;;;;5031615;28;20314;-43
2022/10/30 08:16:00;;;;;;;20.63;11.57;;;13.70;99.90;;;;;;5020587;28;20211;-45
2022/10/30 08:18:27;;;;;;;21.13;11.17;;;13.70;99.90;;;;;;5037261;28;22038;-42
2022/10/30 08:20:55;;;;;;;22.50;12.20;;;13.80;99.90;;;;;;5029935;28;20215;-43
2022/10/30 08:23:23;;;;;;;20.47;12.10;;;13.80;99.90;;;;;;5035370;28;20226;-46
2022/10/30 08:25:50;;;;;;;17.83;10.70;;;13.90;99.90;;;;;;5020575;28;20207;-44
2022/10/30 08:28:17;;;;;;;24.43;11.60;;;13.90;99.90;;;;;;5035120;28;20269;-45
2022/10/30 08:30:45;;;;;;;12.93;10.93;;;14.00;99.90;;;;;;5026812;28;20281;-43
2022/10/30 08:33:15;;;;;;;17.47;11.67;;;14.00;99.90;;;;;;5030837;28;20921;-43
2022/10/30 08:36:15;;;;;;;15.60;10.83;;;14.10;99.90;;;;;;5026932;28;20890;-44
2022/10/30 08:38:42;;;;;;;15.77;10.33;;;14.20;99.90;;;;;;5031649;28;20231;-45
2022/10/30 08:41:14;;;;;;;18.40;10.40;;;14.30;99.90;;;;;;5023887;28;20208;-45
2022/10/30 08:43:45;;;;;;;18.47;10.80;;;14.30;99.90;;;;;;5021701;28;21295;-45
2022/10/30 08:46:11;;;;;;;21.00;10.67;;;14.40;99.90;;;;;;5030324;28;20211;-43
2022/10/30 08:48:38;;;;;;;20.83;10.57;;;14.40;99.90;;;;;;5038675;28;20246;-44
2022/10/30 08:51:05;;;;;;;18.70;10.10;;;14.50;99.90;;;;;;5052818;28;20214;-44
2022/10/30 08:53:37;;;;;;;16.77;9.40;;;14.50;99.90;;;;;;5026711;28;20227;-45
2022/10/30 08:56:09;;;;;;;13.37;10.07;;;14.60;99.90;;;;;;5023572;28;20223;-45
2022/10/30 08:58:46;;;;;;;21.93;11.43;;;14.70;99.90;;;;;;5024702;28;20261;-42
2022/10/30 09:01:13;;;;;;;28.53;10.00;;;14.80;99.90;;;;;;5025675;28;20214;-43
2022/10/30 09:04:00;;;;;;;16.77;10.53;;;15.00;99.90;;;;;;5015797;28;20308;-43
2022/10/30 09:06:58;;;;;;;17.20;10.60;;;15.00;99.90;;;;;;5010606;28;20208;-42
2022/10/30 09:09:45;;;;;;;18.07;11.03;;;15.20;99.90;;;;;;5031966;28;20726;-47
2022/10/30 09:12:12;;;;;;;15.70;9.70;;;15.30;99.90;;;;;;5023250;28;20222;-44
2022/10/30 09:14:43;;;;;;;12.27;9.13;;;15.50;99.90;;;;;;5033529;28;20203;-47
2022/10/30 09:17:11;;;;;;;13.20;9.87;;;15.60;99.90;;;;;;5029200;28;20207;-44
2022/10/30 09:19:39;;;;;;;16.33;9.37;;;15.70;99.90;;;;;;5024320;28;20215;-44
2022/10/30 09:22:06;;;;;;;15.60;8.00;;;15.90;99.90;;;;;;5034519;28;20267;-43
2022/10/30 09:24:38;;;;;;;17.87;8.70;;;16.00;99.90;;;;;;5032510;28;20215;-44
2022/10/30 09:27:26;;;;;;;20.03;9.00;;;16.10;99.90;;;;;;5028995;28;20218;-44
2022/10/30 09:29:55;;;;;;;16.03;9.07;;;16.20;99.90;;;;;;5051744;28;21244;-44
2022/10/30 09:32:24;;;;;;;14.23;9.23;;;16.30;99.90;;;;;;5034669;28;20708;-46
2022/10/30 09:35:00;;;;;;;14.50;8.70;;;16.40;99.90;;;;;;5022269;28;24141;-44
2022/10/30 09:37:34;;;;;;;20.10;8.80;;;16.50;99.90;;;;;;5036837;28;20250;-47
2022/10/30 09:40:03;;;;;;;18.07;9.33;;;16.60;99.90;;;;;;5047319;28;20863;-43
2022/10/30 09:42:44;;;;;;;13.50;9.63;;;16.70;99.90;;;;;;5019019;28;20228;-44
2022/10/30 09:45:45;;;;;;;12.93;8.93;;;16.70;99.90;;;;;;5028034;28;20568;-45
2022/10/30 09:48:46;;;;;;;16.17;8.40;;;16.80;99.90;;;;;;5034025;28;20222;-44
2022/10/30 09:51:40;;;;;;;39.00;13.27;;;16.90;99.90;;;;;;5041451;28;20226;-44
2022/10/30 09:54:18;;;;;;;21.77;10.03;;;17.00;99.90;;;;;;5032736;28;20328;-45
2022/10/30 09:56:56;;;;;;;14.37;9.00;;;17.10;99.90;;;;;;5014023;28;20207;-46
2022/10/30 09:59:38;;;;;;;16.50;8.50;;;17.30;99.90;;;;;;5039192;28;20211;-45
2022/10/30 10:02:20;;;;;;;16.77;9.33;;;17.40;99.90;;;;;;5035340;28;20218;-42
2022/10/30 10:04:51;;;;;;;14.67;8.77;;;17.40;99.90;;;;;;5031150;28;20211;-43
2022/10/30 10:07:40;;;;;;;12.87;8.77;;;17.40;99.90;;;;;;5039546;28;20421;-42
2022/10/30 10:10:30;;;;;;;15.93;8.13;;;17.50;99.90;;;;;;5029714;28;20280;-42
2022/10/30 10:13:04;;;;;;;14.90;8.70;;;17.60;99.90;;;;;;5018873;28;20243;-47
2022/10/30 10:15:39;;;;;;;15.87;9.17;;;17.60;99.90;;;;;;5033152;28;20203;-44
2022/10/30 10:18:14;;;;;;;22.17;9.07;;;17.70;99.90;;;;;;5036059;28;20668;-43
2022/10/30 10:20:44;;;;;;;17.53;9.27;;;17.70;99.90;;;;;;5022885;28;20203;-45
2022/10/30 10:23:17;;;;;;;13.93;9.33;;;17.80;99.90;;;;;;5033676;28;20208;-43
2022/10/30 10:25:51;;;;;;;17.20;8.73;;;17.70;99.90;;;;;;5034728;28;20198;-46
2022/10/30 10:28:38;;;;;;;13.17;8.80;;;17.80;99.90;;;;;;5024060;28;20572;-46
2022/10/30 10:31:12;;;;;;;18.63;10.17;;;17.90;99.90;;;;;;5039245;28;20286;-44
2022/10/30 10:33:49;;;;;;;16.73;9.20;;;17.90;99.90;;;;;;5039179;28;20238;-45
2022/10/30 10:36:28;;;;;;;15.37;8.27;;;18.00;99.90;;;;;;5033149;28;20210;-46
2022/10/30 10:39:11;;;;;;;16.40;9.03;;;18.10;99.90;;;;;;5020547;28;20841;-47
2022/10/30 10:41:56;;;;;;;15.30;8.93;;;18.10;99.90;;;;;;5040135;28;20203;-44
2022/10/30 10:44:39;;;;;;;18.23;8.63;;;18.10;99.90;;;;;;5018081;28;20219;-45
2022/10/30 10:47:23;;;;;;;14.30;8.43;;;18.20;99.90;;;;;;5039642;28;20191;-44
2022/10/30 10:50:05;;;;;;;18.93;10.17;;;18.30;99.90;;;;;;5033394;28;20223;-46
2022/10/30 10:52:38;;;;;;;18.90;8.83;;;18.30;99.90;;;;;;5033055;28;20642;-45
2022/10/30 10:55:09;;;;;;;15.43;9.10;;;18.30;99.90;;;;;;5035127;28;20279;-45
2022/10/30 10:57:39;;;;;;;16.10;8.57;;;18.40;99.90;;;;;;5043046;28;20195;-47
2022/10/30 11:00:13;;;;;;;20.17;9.03;;;18.40;99.90;;;;;;5026060;28;20206;-43
2022/10/30 11:02:46;;;;;;;14.10;8.73;;;18.50;99.90;;;;;;5040563;28;20249;-47
2022/10/30 11:05:24;;;;;;;16.50;8.50;;;18.50;99.90;;;;;;5026515;28;20211;-47
2022/10/30 11:07:52;;;;;;;14.27;7.77;;;18.60;99.90;;;;;;5029901;28;20281;-47
2022/10/30 11:10:20;;;;;;;15.60;7.87;;;18.60;99.90;;;;;;5038821;28;20227;-45
2022/10/30 11:12:47;;;;;;;13.10;8.63;;;18.70;99.90;;;;;;5034694;28;20216;-45
2022/10/30 11:15:25;;;;;;;15.37;8.73;;;18.70;99.90;;;;;;5022297;28;20219;-44
2022/10/30 11:17:59;;;;;;;14.37;7.73;;;18.80;99.90;;;;;;5034463;28;20870;-44
2022/10/30 11:20:33;;;;;;;15.07;8.60;;;18.90;99.90;;;;;;5042239;28;20191;-43
2022/10/30 11:23:00;;;;;;;14.03;7.87;;;19.00;99.90;;;;;;5022984;28;21426;-43
2022/10/30 11:25:35;;;;;;;12.77;8.07;;;19.00;99.90;;;;;;5038891;28;20195;-42
2022/10/30 11:28:05;;;;;;;18.77;8.40;;;19.10;99.90;;;;;;5038528;28;20199;-45
2022/10/30 11:30:32;;;;;;;22.53;8.67;;;19.10;99.90;;;;;;5022093;28;20211;-48
2022/10/30 11:33:21;;;;;;;18.33;8.30;;;19.10;99.90;;;;;;5034148;28;20292;-42
2022/10/30 11:35:48;;;;;;;10.47;7.83;;;19.20;99.90;;;;;;5032804;28;20195;-44
2022/10/30 11:38:19;;;;;;;12.50;8.33;;;19.30;99.90;;;;;;5028948;28;20207;-45
2022/10/30 11:40:48;;;;;;;15.93;7.80;;;19.30;99.90;;;;;;5029643;28;20206;-44
2022/10/30 11:43:18;;;;;;;10.83;7.00;;;19.40;99.90;;;;;;5034495;28;20215;-45
2022/10/30 11:45:45;;;;;;;13.27;7.57;;;19.40;99.90;;;;;;5025162;28;20660;-45
2022/10/30 11:48:21;;;;;;;13.37;7.73;;;19.40;99.90;;;;;;5034123;28;20290;-44
2022/10/30 11:50:50;;;;;;;11.93;7.70;;;19.50;99.90;;;;;;5037741;28;20253;-45
2022/10/30 11:53:22;;;;;;;13.50;7.10;;;19.50;99.90;;;;;;5033824;28;20223;-46
2022/10/30 11:55:50;;;;;;;11.80;7.13;;;19.50;99.90;;;;;;5028476;28;20211;-46
2022/10/30 11:58:23;;;;;;;14.73;7.53;;;19.50;99.90;;;;;;5027551;28;20227;-46
2022/10/30 12:01:00;;;;;;;15.53;7.87;;;19.50;99.90;;;;;;5037365;28;20213;-44
2022/10/30 12:03:34;;;;;;;15.57;8.00;;;19.50;99.90;;;;;;5021759;28;20226;-44
2022/10/30 12:06:10;;;;;;;13.57;7.07;;;19.50;99.90;;;;;;5032445;28;20220;-45
2022/10/30 12:08:37;;;;;;;14.60;7.00;;;19.60;99.90;;;;;;5029049;28;20205;-48
2022/10/30 12:11:05;;;;;;;15.77;8.23;;;19.60;99.90;;;;;;5026624;28;20227;-44
2022/10/30 12:13:38;;;;;;;15.93;8.03;;;19.60;99.90;;;;;;5026919;28;20230;-43
2022/10/30 12:16:14;;;;;;;12.90;7.70;;;19.50;99.90;;;;;;5041606;28;20203;-47
2022/10/30 12:18:53;;;;;;;15.80;7.70;;;19.50;99.90;;;;;;5021321;28;20286;-43
2022/10/30 12:21:20;;;;;;;19.70;7.37;;;19.50;99.90;;;;;;5032371;28;20273;-46
2022/10/30 12:23:54;;;;;;;17.33;8.40;;;19.50;99.90;;;;;;5026695;28;20459;-42
2022/10/30 12:26:23;;;;;;;13.83;7.27;;;19.60;99.90;;;;;;5018232;28;20707;-44
2022/10/30 12:28:55;;;;;;;13.23;7.57;;;19.50;99.90;;;;;;5030831;28;20214;-45
2022/10/30 12:31:30;;;;;;;12.53;7.27;;;19.50;99.90;;;;;;5025031;28;20210;-43
2022/10/30 12:34:07;;;;;;;16.93;7.93;;;19.60;99.90;;;;;;5023280;28;20715;-41
2022/10/30 12:36:40;;;;;;;16.20;7.70;;;19.60;99.90;;;;;;5024267;28;20700;-43
2022/10/30 12:39:13;;;;;;;16.63;7.60;;;19.60;99.90;;;;;;5032765;28;20196;-42
2022/10/30 12:41:44;;;;;;;10.20;7.10;;;19.70;99.90;;;;;;5021830;28;20501;-42
2022/10/30 12:44:16;;;;;;;14.37;7.17;;;19.70;99.90;;;;;;5039425;28;20253;-42
2022/10/30 12:46:48;;;;;;;12.00;6.67;;;19.80;99.90;;;;;;5032066;28;20957;-41
2022/10/30 12:49:24;;;;;;;15.63;7.23;;;19.80;99.90;;;;;;5026412;28;20222;-42
2022/10/30 12:51:58;;;;;;;13.37;7.33;;;19.90;99.90;;;;;;5022727;28;20203;-42
2022/10/30 12:54:33;;;;;;;11.03;7.00;;;19.90;99.90;;;;;;5022145;28;20212;-41
2022/10/30 12:57:08;;;;;;;15.07;7.83;;;19.90;99.90;;;;;;5041872;28;20630;-43
2022/10/30 12:59:43;;;;;;;12.57;6.87;;;20.00;99.90;;;;;;5024570;28;20200;-40